Time;durP1;ratioP1;P1;durP2;ratioP2;P2;SDS_P1;SDS_P2;PMS_P1;PMS_P2;Temp;Humidity;BMP_temperature;BMP_pressure;BME280_temperature;BME280_humidity;BME280_pressure;Samples;Min_cycle;Max_cycle;Signal;HPM_P1;HPM_P2
2022/03/27 00:01:34;;;;;;;55.30;24.00;;;;;;;;;;6263944;28;20048;-63
2022/03/27 00:04:35;;;;;;;56.28;25.77;;;;;;;;;;6264945;28;20041;-61
2022/03/27 00:07:36;;;;;;;54.35;23.08;;;;;;;;;;6265027;28;20544;-61
2022/03/27 00:14:00;;;;;;;52.80;22.02;;;;;;;;;;6257712;28;20053;-61
2022/03/27 00:17:00;;;;;;;60.42;24.95;;;;;;;;;;6262622;28;20071;-60
2022/03/27 00:20:04;;;;;;;53.33;21.92;;;;;;;;;;6261421;28;20045;-61
2022/03/27 00:23:05;;;;;;;53.38;20.58;;;;;;;;;;6259240;28;20071;-61
2022/03/27 00:26:06;;;;;;;57.42;21.67;;;;;;;;;;6259609;28;20057;-61
2022/03/27 00:29:07;;;;;;;45.40;18.55;;;;;;;;;;6261219;28;20518;-60
2022/03/27 00:32:07;;;;;;;29.92;11.90;;;;;;;;;;6263127;28;20049;-61
2022/03/27 00:35:08;;;;;;;49.60;17.35;;;;;;;;;;6261586;28;20045;-61
2022/03/27 00:38:09;;;;;;;37.50;12.07;;;;;;;;;;6262050;28;20512;-61
2022/03/27 00:41:10;;;;;;;30.65;9.65;;;;;;;;;;6261824;28;20049;-61
2022/03/27 00:44:11;;;;;;;30.17;9.50;;;;;;;;;;6257988;28;20515;-59
2022/03/27 00:47:11;;;;;;;20.33;6.50;;;;;;;;;;6262192;28;20044;-62
2022/03/27 00:50:12;;;;;;;48.65;13.73;;;;;;;;;;6264000;28;20045;-59
2022/03/27 00:53:13;;;;;;;35.38;9.02;;;;;;;;;;6246907;28;20061;-59
2022/03/27 00:56:14;;;;;;;34.78;9.20;;;;;;;;;;6264548;28;20056;-59
2022/03/27 00:59:15;;;;;;;25.88;7.90;;;;;;;;;;6263835;28;20426;-62
2022/03/27 01:02:16;;;;;;;23.17;6.00;;;;;;;;;;6263405;28;20541;-61
2022/03/27 01:05:17;;;;;;;16.95;5.03;;;;;;;;;;6266220;28;20060;-60
2022/03/27 01:09:35;;;;;;;34.20;9.20;;;;;;;;;;6270325;28;20048;-61
2022/03/27 01:11:43;;;;;;;34.00;9.50;;;;;;;;;;6268772;28;20059;-60
2022/03/27 01:14:46;;;;;;;22.10;6.53;;;;;;;;;;6266740;28;20084;-61
2022/03/27 01:17:47;;;;;;;19.23;5.07;;;;;;;;;;6278281;28;20045;-61
2022/03/27 01:20:48;;;;;;;22.23;5.70;;;;;;;;;;6268508;28;20529;-61
2022/03/27 01:23:49;;;;;;;32.97;7.47;;;;;;;;;;6272537;28;20044;-61
2022/03/27 01:26:50;;;;;;;16.17;5.53;;;;;;;;;;6274239;28;20198;-61
2022/03/27 01:29:53;;;;;;;21.20;5.78;;;;;;;;;;6275719;28;20066;-63
2022/03/27 01:32:54;;;;;;;16.67;5.90;;;;;;;;;;6274921;28;20056;-61
2022/03/27 01:35:55;;;;;;;22.97;7.03;;;;;;;;;;6273622;28;20077;-63
2022/03/27 01:38:56;;;;;;;32.03;9.90;;;;;;;;;;6275909;28;20303;-64
2022/03/27 01:41:57;;;;;;;25.35;7.32;;;;;;;;;;6272038;28;20057;-61
2022/03/27 01:44:57;;;;;;;19.42;6.28;;;;;;;;;;6273021;28;20136;-62
2022/03/27 01:47:58;;;;;;;17.10;5.72;;;;;;;;;;6276267;28;20083;-60
2022/03/27 01:51:02;;;;;;;22.27;7.18;;;;;;;;;;6274101;28;20048;-62
2022/03/27 01:54:04;;;;;;;44.35;11.57;;;;;;;;;;6267623;28;20155;-61
2022/03/27 01:57:05;;;;;;;18.60;7.10;;;;;;;;;;6265807;28;20050;-60
2022/03/27 02:00:07;;;;;;;19.23;6.20;;;;;;;;;;6274270;28;20140;-62
2022/03/27 02:03:08;;;;;;;14.48;4.55;;;;;;;;;;6269878;28;20052;-61
2022/03/27 02:06:09;;;;;;;17.58;5.10;;;;;;;;;;6271111;28;20173;-61
2022/03/27 02:09:13;;;;;;;15.45;5.35;;;;;;;;;;6272377;28;20531;-62
2022/03/27 02:12:14;;;;;;;20.25;7.45;;;;;;;;;;6268803;28;20049;-60
2022/03/27 02:15:14;;;;;;;18.45;6.40;;;;;;;;;;6272660;28;20206;-60
2022/03/27 02:18:17;;;;;;;23.88;8.25;;;;;;;;;;6271616;28;20078;-60
2022/03/27 02:21:17;;;;;;;;;;;;;;;;;;6272255;28;20053;-62
2022/03/27 02:24:18;;;;;;;20.77;8.98;;;;;;;;;;6273494;28;20015;-61
2022/03/27 02:27:19;;;;;;;24.55;7.22;;;;;;;;;;6271475;28;20123;-62
2022/03/27 02:30:20;;;;;;;23.83;7.68;;;;;;;;;;6273470;28;20048;-61
2022/03/27 02:33:21;;;;;;;23.48;7.90;;;;;;;;;;6269320;28;20048;-63
2022/03/27 02:36:21;;;;;;;27.95;9.95;;;;;;;;;;6277838;28;20511;-61
2022/03/27 02:39:22;;;;;;;24.60;8.85;;;;;;;;;;6281772;28;20043;-62
2022/03/27 02:42:22;;;;;;;33.92;10.13;;;;;;;;;;6269472;28;20049;-62
2022/03/27 02:45:23;;;;;;;31.33;9.57;;;;;;;;;;6267270;28;20132;-61
2022/03/27 02:48:24;;;;;;;18.95;7.13;;;;;;;;;;6275692;28;20157;-61
2022/03/27 02:51:24;;;;;;;29.13;7.60;;;;;;;;;;6274617;28;20139;-63
2022/03/27 02:54:25;;;;;;;23.33;7.82;;;;;;;;;;6272983;28;20110;-60
2022/03/27 02:57:26;;;;;;;22.27;7.22;;;;;;;;;;6273582;28;20139;-60
2022/03/27 03:00:27;;;;;;;22.08;6.80;;;;;;;;;;6276409;28;20060;-61
2022/03/27 03:03:27;;;;;;;20.23;6.90;;;;;;;;;;6268702;28;20076;-60
2022/03/27 03:06:30;;;;;;;18.63;7.38;;;;;;;;;;6270066;28;20102;-60
2022/03/27 03:09:31;;;;;;;22.80;7.43;;;;;;;;;;6269694;28;20075;-60
2022/03/27 03:12:32;;;;;;;27.27;9.20;;;;;;;;;;6272013;28;20044;-62
2022/03/27 03:15:32;;;;;;;29.17;10.23;;;;;;;;;;6272090;28;20107;-62
2022/03/27 03:18:34;;;;;;;30.48;12.10;;;;;;;;;;6269799;28;20055;-62
2022/03/27 03:21:35;;;;;;;40.85;12.05;;;;;;;;;;6276730;28;20098;-63
2022/03/27 03:24:36;;;;;;;29.73;10.35;;;;;;;;;;6273856;28;20053;-60
2022/03/27 03:27:36;;;;;;;31.95;11.07;;;;;;;;;;6271538;28;20152;-60
2022/03/27 03:30:37;;;;;;;30.75;11.38;;;;;;;;;;6272286;28;20116;-61
2022/03/27 03:33:38;;;;;;;31.08;11.18;;;;;;;;;;6272171;28;20079;-61
2022/03/27 03:36:38;;;;;;;31.48;12.43;;;;;;;;;;6271464;28;20057;-60
2022/03/27 03:39:39;;;;;;;33.45;13.25;;;;;;;;;;6271845;28;20444;-60
2022/03/27 03:42:41;;;;;;;143.20;35.80;;;;;;;;;;6269110;28;20084;-60
2022/03/27 03:45:42;;;;;;;237.70;62.93;;;;;;;;;;6268449;28;20048;-61
2022/03/27 03:48:42;;;;;;;215.85;60.00;;;;;;;;;;6267870;28;20832;-60
2022/03/27 03:51:43;;;;;;;94.32;30.67;;;;;;;;;;6276320;28;20049;-60
2022/03/27 03:54:44;;;;;;;64.13;21.98;;;;;;;;;;6274075;28;20076;-61
2022/03/27 03:57:44;;;;;;;51.63;19.05;;;;;;;;;;6274185;28;20049;-60
2022/03/27 04:00:46;;;;;;;46.72;17.52;;;;;;;;;;6271082;28;20040;-62
2022/03/27 04:03:47;;;;;;;44.15;14.35;;;;;;;;;;6271793;28;20037;-61
2022/03/27 04:06:48;;;;;;;39.58;15.35;;;;;;;;;;6272980;28;20052;-60
2022/03/27 04:09:48;;;;;;;79.60;20.30;;;;;;;;;;6267578;28;20132;-61
2022/03/27 04:12:49;;;;;;;89.22;26.38;;;;;;;;;;6266023;28;20684;-61
2022/03/27 04:15:49;;;;;;;94.35;27.10;;;;;;;;;;6265874;28;20529;-60
2022/03/27 04:18:50;;;;;;;99.93;28.63;;;;;;;;;;6267535;28;20131;-60
2022/03/27 04:21:50;;;;;;;88.28;22.90;;;;;;;;;;6269719;28;20098;-61
2022/03/27 04:24:51;;;;;;;65.40;18.88;;;;;;;;;;6267041;28;20073;-61
2022/03/27 04:27:51;;;;;;;56.15;16.23;;;;;;;;;;6272847;28;20132;-62
2022/03/27 04:30:52;;;;;;;46.50;13.75;;;;;;;;;;6271908;28;20132;-60
2022/03/27 04:33:53;;;;;;;41.65;11.27;;;;;;;;;;6270406;28;20167;-60
2022/03/27 04:36:53;;;;;;;35.05;10.05;;;;;;;;;;6267583;28;20052;-61
2022/03/27 04:40:01;;;;;;;34.08;10.18;;;;;;;;;;6276747;28;20045;-61
2022/03/27 04:43:02;;;;;;;37.22;10.75;;;;;;;;;;6273400;28;20053;-61
2022/03/27 04:46:04;;;;;;;37.25;10.30;;;;;;;;;;6267331;28;20436;-62
2022/03/27 04:49:05;;;;;;;43.53;11.13;;;;;;;;;;6267423;28;20127;-61
2022/03/27 04:52:06;;;;;;;40.85;12.50;;;;;;;;;;6270595;28;20082;-62
2022/03/27 04:55:07;;;;;;;34.70;12.38;;;;;;;;;;6267853;28;20048;-62
2022/03/27 04:58:09;;;;;;;44.30;13.82;;;;;;;;;;6263619;28;20139;-60
2022/03/27 05:01:10;;;;;;;42.08;12.38;;;;;;;;;;6268636;28;20060;-60
2022/03/27 05:04:10;;;;;;;45.78;12.23;;;;;;;;;;6265103;28;20135;-60
2022/03/27 05:07:12;;;;;;;45.00;10.35;;;;;;;;;;6269712;28;20064;-61
2022/03/27 05:10:13;;;;;;;38.50;10.25;;;;;;;;;;6267146;28;20075;-59
2022/03/27 05:13:14;;;;;;;39.40;10.25;;;;;;;;;;6260506;28;20050;-62
2022/03/27 05:16:15;;;;;;;45.97;10.93;;;;;;;;;;6254618;28;20151;-60
2022/03/27 05:19:15;;;;;;;50.58;10.95;;;;;;;;;;6268553;28;20072;-61
2022/03/27 05:22:16;;;;;;;52.35;13.20;;;;;;;;;;6269767;28;20125;-60
2022/03/27 05:25:18;;;;;;;58.28;13.80;;;;;;;;;;6265772;28;20076;-60
2022/03/27 05:28:21;;;;;;;63.67;16.90;;;;;;;;;;6268465;28;20751;-60
2022/03/27 05:31:22;;;;;;;73.45;17.30;;;;;;;;;;6271785;28;20061;-61
2022/03/27 05:34:23;;;;;;;75.50;18.20;;;;;;;;;;6267704;28;20135;-60
2022/03/27 05:37:23;;;;;;;58.00;17.73;;;;;;;;;;6261985;28;20043;-60
2022/03/27 05:40:24;;;;;;;59.42;17.30;;;;;;;;;;6259221;28;20125;-61
2022/03/27 05:43:25;;;;;;;66.45;17.25;;;;;;;;;;6259961;28;20072;-60
2022/03/27 05:46:27;;;;;;;59.90;15.85;;;;;;;;;;6261804;28;20047;-62
2022/03/27 05:49:27;;;;;;;57.15;15.40;;;;;;;;;;6260541;28;20044;-60
2022/03/27 05:52:28;;;;;;;50.42;13.48;;;;;;;;;;6262987;28;20112;-61
2022/03/27 05:55:29;;;;;;;35.13;11.02;;;;;;;;;;6261912;28;20118;-60
2022/03/27 05:58:29;;;;;;;27.52;8.75;;;;;;;;;;6263469;28;20041;-60
2022/03/27 06:01:30;;;;;;;31.52;8.45;;;;;;;;;;6267134;28;20045;-60
2022/03/27 06:04:31;;;;;;;28.23;8.25;;;;;;;;;;6264421;28;20064;-60
2022/03/27 06:07:31;;;;;;;21.60;6.65;;;;;;;;;;6269739;28;20071;-60
2022/03/27 06:10:32;;;;;;;23.52;6.70;;;;;;;;;;6267502;28;20183;-62
2022/03/27 06:13:34;;;;;;;23.55;6.63;;;;;;;;;;6270613;28;20048;-61
2022/03/27 06:16:34;;;;;;;18.92;6.22;;;;;;;;;;6268103;28;20107;-59
2022/03/27 06:19:35;;;;;;;29.67;8.05;;;;;;;;;;6273955;28;20041;-60
2022/03/27 06:22:36;;;;;;;25.02;7.03;;;;;;;;;;6278100;28;20048;-60
2022/03/27 06:25:38;;;;;;;18.98;5.68;;;;;;;;;;6278162;28;20060;-61
2022/03/27 06:28:38;;;;;;;19.13;5.95;;;;;;;;;;6273452;28;20028;-60
2022/03/27 06:31:39;;;;;;;17.40;6.40;;;;;;;;;;6268888;28;20114;-60
2022/03/27 06:34:39;;;;;;;15.13;5.28;;;;;;;;;;6272168;28;20127;-60
2022/03/27 06:37:41;;;;;;;17.60;5.65;;;;;;;;;;6271494;28;20041;-62
2022/03/27 06:40:41;;;;;;;18.95;5.85;;;;;;;;;;6267682;28;20069;-61
2022/03/27 06:43:42;;;;;;;23.55;6.43;;;;;;;;;;6254314;28;20053;-60
2022/03/27 06:46:43;;;;;;;18.83;5.45;;;;;;;;;;6268710;28;20196;-60
2022/03/27 06:49:44;;;;;;;20.17;7.50;;;;;;;;;;6269912;28;20055;-61
2022/03/27 06:52:47;;;;;;;20.48;7.78;;;;;;;;;;6269916;28;20198;-61
2022/03/27 06:55:48;;;;;;;21.23;7.78;;;;;;;;;;6267092;28;20080;-60
2022/03/27 06:58:48;;;;;;;16.80;7.35;;;;;;;;;;6271454;28;20126;-60
2022/03/27 07:05:12;;;;;;;21.80;8.73;;;;;;;;;;6262220;28;20055;-60
2022/03/27 07:08:15;;;;;;;16.48;5.80;;;;;;;;;;6276714;28;20049;-60
2022/03/27 07:11:15;;;;;;;19.75;6.90;;;;;;;;;;6270001;28;20121;-59
2022/03/27 07:14:16;;;;;;;17.15;7.43;;;;;;;;;;6273563;28;20048;-60
2022/03/27 07:17:17;;;;;;;20.63;5.20;;;;;;;;;;6265436;28;20135;-61
2022/03/27 07:20:26;;;;;;;20.87;5.77;;;;;;;;;;6271443;28;20562;-61
2022/03/27 07:23:27;;;;;;;18.20;4.90;;;;;;;;;;6272776;28;20105;-61
2022/03/27 07:26:28;;;;;;;9.07;2.30;;;;;;;;;;6266703;28;20045;-62
2022/03/27 07:29:32;;;;;;;10.10;3.85;;;;;;;;;;6274152;28;20348;-61
2022/03/27 07:32:33;;;;;;;14.43;4.22;;;;;;;;;;6275738;28;20048;-60
2022/03/27 07:35:34;;;;;;;13.00;4.97;;;;;;;;;;6252777;28;20125;-61
2022/03/27 07:38:35;;;;;;;12.10;3.58;;;;;;;;;;6244691;28;20176;-60
2022/03/27 07:41:35;;;;;;;12.52;3.03;;;;;;;;;;6261806;28;20049;-60
2022/03/27 07:44:36;;;;;;;6.57;2.25;;;;;;;;;;6264030;28;20145;-61
2022/03/27 07:47:37;;;;;;;6.80;2.40;;;;;;;;;;6267029;28;20127;-60
2022/03/27 07:50:38;;;;;;;9.50;2.85;;;;;;;;;;6268780;28;20048;-60
2022/03/27 07:53:38;;;;;;;7.65;1.80;;;;;;;;;;6250243;28;20495;-59
2022/03/27 07:56:39;;;;;;;10.50;2.63;;;;;;;;;;6266540;28;20470;-59
2022/03/27 07:59:40;;;;;;;9.98;3.25;;;;;;;;;;6268437;28;20072;-62
2022/03/27 08:02:42;;;;;;;6.95;1.85;;;;;;;;;;6264797;28;20055;-62
2022/03/27 08:05:43;;;;;;;;;;;;;;;;;;6263530;28;20052;-62
2022/03/27 08:08:43;;;;;;;11.25;3.10;;;;;;;;;;6263427;28;19966;-62
2022/03/27 08:11:44;;;;;;;11.63;2.30;;;;;;;;;;6245115;28;20136;-62
2022/03/27 08:15:30;;;;;;;10.68;3.00;;;;;;;;;;6266275;28;20053;-61
2022/03/27 08:18:32;;;;;;;11.80;3.35;;;;;;;;;;6261106;28;20054;-57
2022/03/27 08:21:33;;;;;;;10.95;3.00;;;;;;;;;;6265277;28;20055;-55
2022/03/27 08:24:33;;;;;;;10.50;3.65;;;;;;;;;;6263524;28;20041;-60
2022/03/27 08:27:35;;;;;;;11.63;3.40;;;;;;;;;;6261898;28;20095;-62
2022/03/27 08:30:35;;;;;;;9.95;3.05;;;;;;;;;;6259597;28;20080;-61
2022/03/27 08:33:36;;;;;;;12.75;2.72;;;;;;;;;;6253669;28;20534;-59
2022/03/27 08:36:37;;;;;;;10.50;2.90;;;;;;;;;;6262811;28;20502;-59
2022/03/27 08:39:38;;;;;;;13.32;3.67;;;;;;;;;;6263005;28;20044;-61
2022/03/27 08:42:39;;;;;;;10.40;4.10;;;;;;;;;;6263626;28;20060;-61
2022/03/27 08:45:41;;;;;;;9.50;2.30;;;;;;;;;;6261821;28;20040;-61
2022/03/27 08:48:44;;;;;;;7.03;1.75;;;;;;;;;;6259469;28;20045;-61
2022/03/27 08:52:04;;;;;;;5.43;1.98;;;;;;;;;;6260847;28;20077;-61
2022/03/27 08:55:07;;;;;;;7.43;1.90;;;;;;;;;;6260462;28;20084;-61
2022/03/27 08:58:10;;;;;;;7.82;2.70;;;;;;;;;;6263087;28;20053;-61
2022/03/27 09:01:11;;;;;;;6.85;2.13;;;;;;;;;;6257627;28;20068;-61
2022/03/27 09:04:14;;;;;;;5.25;1.55;;;;;;;;;;6262560;28;20049;-61
2022/03/27 09:07:14;;;;;;;5.00;2.00;;;;;;;;;;6262416;28;20107;-62
2022/03/27 09:10:16;;;;;;;8.07;2.95;;;;;;;;;;6261723;28;20048;-61
2022/03/27 09:13:18;;;;;;;7.03;1.75;;;;;;;;;;6264723;28;20094;-61
2022/03/27 09:16:19;;;;;;;9.20;1.83;;;;;;;;;;6261672;28;20050;-61
2022/03/27 09:19:35;;;;;;;5.03;2.17;;;;;;;;;;6263079;28;20595;-61
2022/03/27 09:22:36;;;;;;;10.68;2.20;;;;;;;;;;6262833;28;20075;-61
2022/03/27 09:25:44;;;;;;;7.65;1.65;;;;;;;;;;6264594;28;20057;-59
2022/03/27 09:28:52;;;;;;;6.18;2.00;;;;;;;;;;6265210;28;20134;-63
2022/03/27 09:31:58;;;;;;;5.57;1.83;;;;;;;;;;6263301;28;20118;-61
2022/03/27 09:35:04;;;;;;;9.00;2.00;;;;;;;;;;6265740;28;20404;-62
2022/03/27 09:38:13;;;;;;;8.13;2.10;;;;;;;;;;6262920;28;20589;-63
2022/03/27 09:41:34;;;;;;;7.68;2.20;;;;;;;;;;6265884;28;20103;-61
2022/03/27 09:44:37;;;;;;;8.47;2.13;;;;;;;;;;6266689;28;20045;-61
2022/03/27 09:47:39;;;;;;;7.20;1.95;;;;;;;;;;6262754;28;20064;-62
2022/03/27 09:50:40;;;;;;;7.25;2.05;;;;;;;;;;6265184;28;20060;-63
2022/03/27 09:53:41;;;;;;;8.25;1.90;;;;;;;;;;6266017;28;20045;-61
2022/03/27 09:56:42;;;;;;;6.93;1.77;;;;;;;;;;6265960;28;20068;-62
2022/03/27 09:59:42;;;;;;;8.60;1.85;;;;;;;;;;6268205;28;20483;-60
2022/03/27 10:03:14;;;;;;;7.47;2.17;;;;;;;;;;6267253;28;20174;-57
2022/03/27 10:06:38;;;;;;;9.23;1.92;;;;;;;;;;6264253;28;20582;-60
2022/03/27 10:09:38;;;;;;;8.35;2.22;;;;;;;;;;6267827;28;20049;-61
2022/03/27 10:12:41;;;;;;;9.40;2.80;;;;;;;;;;6266396;28;20048;-61
2022/03/27 10:15:43;;;;;;;7.55;1.90;;;;;;;;;;6259414;28;20051;-61
2022/03/27 10:18:44;;;;;;;7.30;2.20;;;;;;;;;;6260940;28;20843;-61
2022/03/27 10:21:46;;;;;;;5.85;2.40;;;;;;;;;;6258143;28;20135;-62
2022/03/27 10:24:54;;;;;;;7.85;2.05;;;;;;;;;;6261224;28;20157;-65
2022/03/27 10:27:54;;;;;;;8.63;2.28;;;;;;;;;;6259102;28;20233;-62
2022/03/27 10:30:55;;;;;;;7.38;2.38;;;;;;;;;;6257749;28;20076;-61
2022/03/27 10:33:58;;;;;;;8.75;2.05;;;;;;;;;;6260308;28;20041;-63
2022/03/27 10:37:06;;;;;;;7.28;2.10;;;;;;;;;;6259012;28;20485;-60
2022/03/27 10:40:23;;;;;;;7.18;3.00;;;;;;;;;;6255772;28;20049;-62
2022/03/27 10:44:06;;;;;;;10.90;3.13;;;;;;;;;;6257203;28;20159;-61
2022/03/27 10:47:13;;;;;;;7.18;2.30;;;;;;;;;;6257934;28;20053;-59
2022/03/27 10:50:21;;;;;;;8.38;3.03;;;;;;;;;;6254695;28;20556;-64
2022/03/27 10:53:25;;;;;;;7.05;2.63;;;;;;;;;;6259762;28;20080;-59
2022/03/27 10:56:34;;;;;;;9.30;3.03;;;;;;;;;;6260723;28;20525;-64
2022/03/27 10:59:42;;;;;;;11.70;3.83;;;;;;;;;;6256440;28;20055;-64
2022/03/27 11:02:52;;;;;;;9.55;2.75;;;;;;;;;;6257446;28;20432;-62
2022/03/27 11:06:00;;;;;;;12.68;3.17;;;;;;;;;;6260156;28;20059;-62
2022/03/27 11:09:04;;;;;;;8.57;2.70;;;;;;;;;;6257075;28;20045;-60
2022/03/27 11:12:26;;;;;;;12.38;3.75;;;;;;;;;;6257292;28;20064;-67
2022/03/27 11:15:26;;;;;;;9.63;2.78;;;;;;;;;;6257101;28;20041;-62
2022/03/27 11:18:43;;;;;;;9.75;2.95;;;;;;;;;;6257271;28;20586;-61
2022/03/27 11:21:44;;;;;;;13.05;3.42;;;;;;;;;;6259837;28;20564;-65
2022/03/27 11:24:45;;;;;;;13.35;3.00;;;;;;;;;;6256903;28;20093;-62
2022/03/27 11:28:15;;;;;;;13.63;3.22;;;;;;;;;;6259726;28;20055;-61
2022/03/27 11:31:18;;;;;;;10.23;2.95;;;;;;;;;;6253348;28;20072;-61
2022/03/27 11:34:20;;;;;;;10.60;3.88;;;;;;;;;;6258734;28;20214;-61
2022/03/27 11:37:25;;;;;;;10.40;3.92;;;;;;;;;;6257300;28;20424;-60
2022/03/27 11:40:37;;;;;;;11.57;3.40;;;;;;;;;;6254605;28;20053;-62
2022/03/27 11:43:38;;;;;;;15.15;3.53;;;;;;;;;;6258136;28;20160;-62
2022/03/27 11:46:40;;;;;;;12.45;3.92;;;;;;;;;;6256814;28;20055;-64
2022/03/27 11:49:42;;;;;;;20.45;5.40;;;;;;;;;;6257512;28;20052;-62
2022/03/27 11:52:45;;;;;;;14.40;4.22;;;;;;;;;;6258379;28;20057;-60
2022/03/27 11:55:45;;;;;;;;;;;;;;;;;;6257999;28;20835;-62
2022/03/27 11:59:06;;;;;;;10.10;3.88;;;;;;;;;;6253160;28;19929;-61
2022/03/27 12:02:06;;;;;;;17.52;5.30;;;;;;;;;;6254956;28;20055;-61
2022/03/27 12:05:08;;;;;;;15.18;4.18;;;;;;;;;;6257648;28;20049;-61
2022/03/27 12:08:11;;;;;;;14.07;4.10;;;;;;;;;;6256084;28;20515;-61
2022/03/27 12:11:19;;;;;;;12.82;3.80;;;;;;;;;;6255391;28;20053;-62
2022/03/27 12:14:20;;;;;;;13.38;3.83;;;;;;;;;;6258747;28;20063;-61
2022/03/27 12:17:31;;;;;;;12.77;3.70;;;;;;;;;;6256810;28;20065;-61
2022/03/27 12:20:52;;;;;;;17.55;4.50;;;;;;;;;;6255077;28;20072;-61
2022/03/27 12:23:55;;;;;;;19.50;4.65;;;;;;;;;;6256092;28;20077;-62
2022/03/27 12:30:15;;;;;;;26.45;6.00;;;;;;;;;;6254849;28;20053;-61
2022/03/27 12:33:23;;;;;;;20.55;5.70;;;;;;;;;;6256586;28;20140;-62
2022/03/27 12:36:24;;;;;;;13.90;4.18;;;;;;;;;;6257096;28;20233;-67
2022/03/27 12:39:25;;;;;;;16.15;4.40;;;;;;;;;;6254235;28;20466;-62
2022/03/27 12:42:33;;;;;;;15.73;5.00;;;;;;;;;;6256381;28;20523;-63
2022/03/27 12:45:36;;;;;;;16.38;4.20;;;;;;;;;;6256210;28;20250;-64
2022/03/27 12:48:38;;;;;;;18.90;4.95;;;;;;;;;;6255730;28;20138;-67
2022/03/27 12:51:40;;;;;;;17.58;4.90;;;;;;;;;;6256883;28;20515;-63
2022/03/27 12:54:55;;;;;;;15.60;4.00;;;;;;;;;;6255878;28;20087;-64
2022/03/27 12:57:59;;;;;;;15.95;4.20;;;;;;;;;;6257418;28;20037;-64
2022/03/27 13:01:10;;;;;;;16.92;4.88;;;;;;;;;;6255039;28;20068;-59
2022/03/27 13:04:11;;;;;;;14.90;4.75;;;;;;;;;;6253999;28;20083;-63
2022/03/27 13:07:13;;;;;;;18.23;6.43;;;;;;;;;;6257196;28;20088;-62
2022/03/27 13:10:13;;;;;;;17.83;5.43;;;;;;;;;;6253074;28;20903;-63
2022/03/27 13:13:17;;;;;;;17.55;4.40;;;;;;;;;;6251805;28;20061;-63
2022/03/27 13:16:30;;;;;;;19.27;5.53;;;;;;;;;;6254027;28;20179;-63
2022/03/27 13:19:44;;;;;;;17.63;4.82;;;;;;;;;;6253708;28;20095;-62
2022/03/27 13:22:45;;;;;;;14.00;4.25;;;;;;;;;;6251994;28;20056;-63
2022/03/27 13:25:46;;;;;;;19.58;5.00;;;;;;;;;;6252821;28;20056;-62
2022/03/27 13:28:47;;;;;;;15.95;5.35;;;;;;;;;;6252951;28;20103;-61
2022/03/27 13:31:48;;;;;;;21.10;4.95;;;;;;;;;;6253750;28;20143;-63
2022/03/27 13:34:49;;;;;;;13.27;4.53;;;;;;;;;;6254311;28;20049;-61
2022/03/27 13:37:51;;;;;;;21.27;10.02;;;;;;;;;;6254819;28;20138;-62
2022/03/27 13:44:13;;;;;;;17.40;4.82;;;;;;;;;;6255522;28;20064;-64
2022/03/27 13:47:15;;;;;;;18.33;5.47;;;;;;;;;;6253742;28;20092;-61
2022/03/27 13:50:16;;;;;;;18.48;5.63;;;;;;;;;;6252853;28;20138;-62
2022/03/27 13:53:16;;;;;;;16.85;5.38;;;;;;;;;;6254504;28;20423;-62
2022/03/27 13:56:17;;;;;;;22.88;5.68;;;;;;;;;;6253122;28;20111;-62
2022/03/27 13:59:18;;;;;;;19.33;6.55;;;;;;;;;;6251554;28;20057;-64
2022/03/27 14:02:21;;;;;;;19.15;6.03;;;;;;;;;;6252594;28;20938;-61
2022/03/27 14:05:21;;;;;;;41.90;13.43;;;;;;;;;;6251490;28;20053;-62
2022/03/27 14:08:22;;;;;;;19.15;5.75;;;;;;;;;;6251840;28;20126;-60
2022/03/27 14:11:23;;;;;;;15.32;5.82;;;;;;;;;;6252353;28;20057;-61
2022/03/27 14:14:24;;;;;;;14.95;4.85;;;;;;;;;;6253622;28;20410;-64
2022/03/27 14:17:24;;;;;;;13.00;4.45;;;;;;;;;;6253363;28;20049;-61
2022/03/27 14:20:25;;;;;;;15.05;5.72;;;;;;;;;;6253331;28;20052;-62
2022/03/27 14:23:26;;;;;;;18.67;5.57;;;;;;;;;;6259481;28;20128;-62
2022/03/27 14:26:27;;;;;;;19.90;5.47;;;;;;;;;;6256920;28;20503;-61
2022/03/27 14:29:27;;;;;;;17.35;5.15;;;;;;;;;;6258288;28;20135;-63
2022/03/27 14:32:28;;;;;;;16.67;5.32;;;;;;;;;;6259093;28;20056;-61
2022/03/27 14:35:29;;;;;;;13.23;5.10;;;;;;;;;;6258896;28;20049;-62
2022/03/27 14:38:30;;;;;;;18.75;6.00;;;;;;;;;;6256690;28;20459;-63
2022/03/27 14:41:32;;;;;;;19.65;6.03;;;;;;;;;;6258863;28;20081;-63
2022/03/27 14:44:32;;;;;;;18.48;5.93;;;;;;;;;;6258423;28;20490;-61
2022/03/27 14:47:35;;;;;;;24.90;7.80;;;;;;;;;;6254928;28;20164;-62
2022/03/27 14:50:35;;;;;;;20.52;5.60;;;;;;;;;;6255403;28;20149;-61
2022/03/27 14:56:57;;;;;;;16.65;5.93;;;;;;;;;;6257312;28;20594;-63
2022/03/27 14:59:59;;;;;;;27.63;5.90;;;;;;;;;;6256207;28;20045;-64
2022/03/27 15:03:02;;;;;;;21.45;6.53;;;;;;;;;;6258262;28;20076;-63
2022/03/27 15:06:04;;;;;;;13.60;4.72;;;;;;;;;;6255331;28;20084;-62
2022/03/27 15:09:07;;;;;;;17.00;4.87;;;;;;;;;;6254368;28;20580;-62
2022/03/27 15:12:08;;;;;;;15.65;4.95;;;;;;;;;;6256728;28;20773;-64
2022/03/27 15:15:09;;;;;;;18.83;5.10;;;;;;;;;;6257079;28;20147;-61
2022/03/27 15:18:10;;;;;;;17.67;6.00;;;;;;;;;;6254933;28;20049;-60
2022/03/27 15:21:11;;;;;;;19.55;5.55;;;;;;;;;;6254596;28;20545;-61
2022/03/27 15:24:11;;;;;;;19.30;6.75;;;;;;;;;;6256483;28;20056;-62
2022/03/27 15:27:12;;;;;;;20.15;5.47;;;;;;;;;;6257086;28;20053;-62
2022/03/27 15:30:15;;;;;;;19.10;5.25;;;;;;;;;;6254550;28;20057;-61
2022/03/27 15:33:16;;;;;;;16.95;5.28;;;;;;;;;;6256962;28;21015;-62
2022/03/27 15:36:16;;;;;;;20.88;6.07;;;;;;;;;;6256775;28;20052;-63
2022/03/27 15:39:17;;;;;;;24.70;7.40;;;;;;;;;;6253869;28;20049;-62
2022/03/27 15:42:19;;;;;;;20.77;7.53;;;;;;;;;;6257211;28;20061;-62
2022/03/27 15:45:20;;;;;;;17.27;5.32;;;;;;;;;;6257834;28;20057;-62
2022/03/27 15:48:20;;;;;;;16.88;4.97;;;;;;;;;;6255336;28;20068;-63
2022/03/27 15:51:21;;;;;;;20.90;7.57;;;;;;;;;;6256036;28;20057;-62
2022/03/27 15:54:22;;;;;;;18.23;6.93;;;;;;;;;;6257117;28;20065;-62
2022/03/27 15:57:23;;;;;;;18.55;6.25;;;;;;;;;;6254868;28;20072;-70
2022/03/27 16:00:23;;;;;;;20.80;6.47;;;;;;;;;;6253830;28;20049;-64
2022/03/27 16:03:24;;;;;;;27.00;6.55;;;;;;;;;;6251111;28;20063;-66
2022/03/27 16:06:25;;;;;;;28.77;5.70;;;;;;;;;;6253239;28;20051;-61
2022/03/27 16:09:25;;;;;;;17.60;6.13;;;;;;;;;;6252483;28;20132;-61
2022/03/27 16:12:26;;;;;;;20.40;5.93;;;;;;;;;;6255398;28;20070;-62
2022/03/27 16:15:27;;;;;;;22.17;5.40;;;;;;;;;;6255157;28;20404;-61
2022/03/27 16:18:27;;;;;;;20.30;5.80;;;;;;;;;;6252021;28;20117;-63
2022/03/27 16:21:28;;;;;;;17.10;6.40;;;;;;;;;;6253426;28;20048;-62
2022/03/27 16:24:29;;;;;;;51.15;17.65;;;;;;;;;;6254783;28;20135;-63
2022/03/27 16:27:29;;;;;;;143.43;49.83;;;;;;;;;;6250677;28;20045;-63
2022/03/27 16:30:30;;;;;;;64.93;21.50;;;;;;;;;;6251531;28;20716;-63
2022/03/27 16:33:31;;;;;;;26.05;8.63;;;;;;;;;;6255301;28;20573;-61
2022/03/27 16:36:32;;;;;;;44.33;15.35;;;;;;;;;;6253947;28;20045;-64
2022/03/27 16:39:33;;;;;;;21.25;8.55;;;;;;;;;;6251270;28;20421;-60
2022/03/27 16:42:33;;;;;;;15.85;5.43;;;;;;;;;;6254950;28;20102;-62
2022/03/27 16:45:34;;;;;;;38.05;14.13;;;;;;;;;;6255456;28;20056;-60
2022/03/27 16:48:35;;;;;;;73.93;29.10;;;;;;;;;;6253338;28;20504;-60
2022/03/27 16:51:36;;;;;;;95.57;43.08;;;;;;;;;;6256235;28;20063;-65
2022/03/27 16:54:36;;;;;;;55.42;24.55;;;;;;;;;;6255243;28;20211;-63
2022/03/27 16:57:39;;;;;;;52.78;26.45;;;;;;;;;;6253856;28;20068;-64
2022/03/27 17:00:40;;;;;;;73.10;32.55;;;;;;;;;;6252296;28;20415;-60
2022/03/27 17:03:41;;;;;;;87.03;39.67;;;;;;;;;;6255191;28;20139;-60
2022/03/27 17:06:42;;;;;;;63.28;28.63;;;;;;;;;;6254403;28;20099;-60
2022/03/27 17:09:42;;;;;;;53.17;26.17;;;;;;;;;;6253911;28;20057;-63
2022/03/27 17:12:43;;;;;;;48.72;22.85;;;;;;;;;;6255508;28;21247;-62
2022/03/27 17:15:44;;;;;;;44.53;18.73;;;;;;;;;;6250128;28;20138;-64
2022/03/27 17:18:46;;;;;;;25.83;10.38;;;;;;;;;;6246928;28;20101;-61
2022/03/27 17:21:47;;;;;;;;;;;;;;;;;;6252020;28;20075;-60
2022/03/27 17:24:47;;;;;;;37.58;11.52;;;;;;;;;;6256273;28;20031;-59
2022/03/27 17:27:48;;;;;;;29.23;11.00;;;;;;;;;;6254154;28;20056;-60
2022/03/27 17:30:48;;;;;;;27.92;12.25;;;;;;;;;;6253337;28;20136;-60
2022/03/27 17:33:49;;;;;;;25.33;11.52;;;;;;;;;;6255229;28;20049;-68
2022/03/27 17:36:50;;;;;;;27.25;11.23;;;;;;;;;;6253988;28;20048;-68
2022/03/27 17:39:51;;;;;;;29.50;12.15;;;;;;;;;;6252582;28;20049;-64
2022/03/27 17:42:51;;;;;;;34.25;12.73;;;;;;;;;;6254321;28;20098;-65
2022/03/27 17:45:52;;;;;;;38.65;13.60;;;;;;;;;;6253045;28;20057;-60
2022/03/27 17:48:54;;;;;;;39.63;14.52;;;;;;;;;;6251839;28;20049;-60
2022/03/27 17:51:55;;;;;;;42.17;14.38;;;;;;;;;;6254618;28;20523;-61
2022/03/27 17:54:55;;;;;;;46.97;17.55;;;;;;;;;;6252824;28;20053;-60
2022/03/27 17:57:57;;;;;;;48.65;17.85;;;;;;;;;;6256832;28;20045;-59
2022/03/27 18:00:57;;;;;;;64.25;21.67;;;;;;;;;;6257882;28;20131;-63
2022/03/27 18:03:58;;;;;;;66.00;22.02;;;;;;;;;;6258009;28;20037;-61
2022/03/27 18:06:59;;;;;;;61.08;21.73;;;;;;;;;;6257723;28;20134;-60
2022/03/27 18:10:01;;;;;;;57.97;21.67;;;;;;;;;;6256888;28;20049;-62
2022/03/27 18:13:02;;;;;;;56.15;21.92;;;;;;;;;;6259461;28;20294;-60